Time;durP1;ratioP1;P1;durP2;ratioP2;P2;SDS_P1;SDS_P2;PMS_P1;PMS_P2;Temp;Humidity;BMP_temperature;BMP_pressure;BME280_temperature;BME280_humidity;BME280_pressure;Samples;Min_cycle;Max_cycle;Signal;HPM_P1;HPM_P2
2023/02/15 00:01:07;;;;;;;1.90;1.30;;;;;;;;;;105400;1249;61660;-63
2023/02/15 00:03:36;;;;;;;1.50;1.10;;;;;;;;;;105398;1251;62248;-61
2023/02/15 00:06:06;;;;;;;4.10;1.10;;;;;;;;;;105335;1252;61691;-62
2023/02/15 00:08:36;;;;;;;1.60;1.10;;;;;;;;;;105324;1250;61786;-63
2023/02/15 00:11:05;;;;;;;1.80;1.00;;;;;;;;;;105397;1253;61793;-62
2023/02/15 00:13:35;;;;;;;2.00;1.00;;;;;;;;;;105289;1253;61701;-63
2023/02/15 00:16:03;;;;;;;0.70;0.60;;;;;;;;;;105353;1250;61679;-62
2023/02/15 00:18:35;;;;;;;1.90;1.20;;;;;;;;;;105446;1256;61753;-63
2023/02/15 00:21:04;;;;;;;1.60;0.90;;;;;;;;;;105346;1248;61688;-62
2023/02/15 00:23:33;;;;;;;0.80;0.70;;;;;;;;;;105425;1256;61688;-62
2023/02/15 00:26:04;;;;;;;0.80;0.60;;;;;;;;;;105309;1263;62447;-62
2023/02/15 00:28:33;;;;;;;1.40;1.10;;;;;;;;;;105309;1252;61652;-62
2023/02/15 00:31:04;;;;;;;1.20;1.00;;;;;;;;;;105425;1263;61056;-61
2023/02/15 00:33:36;;;;;;;0.80;0.70;;;;;;;;;;105380;1248;61676;-61
2023/02/15 00:36:05;;;;;;;2.20;0.90;;;;;;;;;;105432;1250;61688;-61
2023/02/15 00:38:35;;;;;;;1.10;0.90;;;;;;;;;;105374;1251;61599;-62
2023/02/15 00:41:04;;;;;;;1.20;0.80;;;;;;;;;;105154;1249;61754;-61
2023/02/15 00:43:33;;;;;;;1.50;1.10;;;;;;;;;;105054;1253;61710;-62
2023/02/15 00:46:02;;;;;;;1.40;0.80;;;;;;;;;;105287;1267;62108;-61
2023/02/15 00:48:31;;;;;;;1.00;0.60;;;;;;;;;;105391;1254;61680;-62
2023/02/15 00:50:59;;;;;;;1.60;0.90;;;;;;;;;;105385;1251;61657;-62
2023/02/15 00:53:28;;;;;;;1.80;1.10;;;;;;;;;;105448;1250;61591;-62
2023/02/15 00:55:56;;;;;;;1.00;0.80;;;;;;;;;;105356;1247;61717;-62
2023/02/15 00:58:27;;;;;;;3.80;1.10;;;;;;;;;;105431;1260;61692;-61
2023/02/15 01:01:06;;;;;;;1.30;0.90;;;;;;;;;;105410;1253;61672;-62
2023/02/15 01:03:34;;;;;;;2.50;2.10;;;;;;;;;;105016;1268;61677;-62
2023/02/15 01:06:03;;;;;;;1.40;0.90;;;;;;;;;;105286;1253;61719;-62
2023/02/15 01:08:31;;;;;;;1.70;1.10;;;;;;;;;;105381;1249;61731;-62
2023/02/15 01:11:06;;;;;;;1.20;0.80;;;;;;;;;;105381;1248;61701;-63
2023/02/15 01:13:35;;;;;;;0.90;0.70;;;;;;;;;;104938;1248;61740;-62
2023/02/15 01:16:03;;;;;;;1.20;1.00;;;;;;;;;;105310;1269;60702;-62
2023/02/15 01:18:32;;;;;;;1.00;0.80;;;;;;;;;;105614;1250;61681;-62
2023/02/15 01:21:09;;;;;;;1.20;0.90;;;;;;;;;;105310;1254;61698;-63
2023/02/15 01:23:37;;;;;;;1.70;1.10;;;;;;;;;;105076;1257;61682;-61
2023/02/15 01:26:06;;;;;;;1.30;0.60;;;;;;;;;;105326;1251;61606;-61
2023/02/15 01:28:34;;;;;;;1.00;0.90;;;;;;;;;;105315;1248;61787;-62
2023/02/15 01:31:06;;;;;;;1.50;0.80;;;;;;;;;;105522;1250;61678;-62
2023/02/15 01:33:35;;;;;;;1.90;0.60;;;;;;;;;;105358;1254;61609;-61
2023/02/15 01:36:04;;;;;;;0.60;0.50;;;;;;;;;;105385;1248;61689;-61
2023/02/15 01:38:32;;;;;;;0.50;0.40;;;;;;;;;;105593;1248;61688;-61
2023/02/15 01:41:19;;;;;;;1.00;0.50;;;;;;;;;;105464;1248;61586;-61
2023/02/15 01:43:57;;;;;;;1.60;0.40;;;;;;;;;;105220;1253;61651;-62
2023/02/15 01:46:32;;;;;;;0.70;0.60;;;;;;;;;;105416;1248;61608;-63
2023/02/15 01:49:02;;;;;;;1.40;0.80;;;;;;;;;;105299;1254;61046;-60
2023/02/15 01:51:32;;;;;;;1.00;0.60;;;;;;;;;;105307;1259;61605;-60
2023/02/15 01:54:18;;;;;;;0.60;0.60;;;;;;;;;;105213;1264;61694;-63
2023/02/15 01:56:47;;;;;;;1.90;0.80;;;;;;;;;;105234;1261;61664;-60
2023/02/15 01:59:19;;;;;;;1.20;0.50;;;;;;;;;;105101;1253;61707;-60
2023/02/15 02:01:50;;;;;;;0.50;0.50;;;;;;;;;;105497;1251;61820;-60
2023/02/15 02:04:21;;;;;;;0.70;0.60;;;;;;;;;;104784;1253;61766;-60
2023/02/15 02:06:51;;;;;;;1.20;0.60;;;;;;;;;;105072;1255;61692;-61
2023/02/15 02:09:20;;;;;;;1.20;0.90;;;;;;;;;;105503;1253;61592;-60
2023/02/15 02:11:48;;;;;;;0.80;0.60;;;;;;;;;;105088;1261;60827;-60
2023/02/15 02:14:16;;;;;;;0.80;0.80;;;;;;;;;;105379;1253;61562;-60
2023/02/15 02:16:45;;;;;;;0.70;0.50;;;;;;;;;;105440;1257;61427;-63
2023/02/15 02:19:16;;;;;;;0.80;0.50;;;;;;;;;;105496;1250;62149;-60
2023/02/15 02:22:03;;;;;;;0.70;0.70;;;;;;;;;;105431;1263;62022;-61
2023/02/15 02:24:45;;;;;;;2.00;0.70;;;;;;;;;;105395;1251;61701;-62
2023/02/15 02:27:22;;;;;;;0.50;0.50;;;;;;;;;;105270;1248;61668;-62
2023/02/15 02:29:57;;;;;;;0.80;0.50;;;;;;;;;;105404;1255;61665;-65
2023/02/15 02:32:45;;;;;;;1.00;0.70;;;;;;;;;;105491;1247;61691;-62
2023/02/15 02:35:22;;;;;;;0.60;0.50;;;;;;;;;;105422;1264;61673;-62
2023/02/15 02:37:55;;;;;;;0.50;0.40;;;;;;;;;;105183;1259;61746;-62
2023/02/15 02:40:43;;;;;;;0.40;0.40;;;;;;;;;;105238;1267;61568;-62
2023/02/15 02:43:16;;;;;;;1.00;0.40;;;;;;;;;;105338;1248;61650;-62
2023/02/15 02:45:47;;;;;;;1.50;0.60;;;;;;;;;;104859;1254;61650;-62
2023/02/15 02:48:21;;;;;;;0.60;0.40;;;;;;;;;;105040;1253;61762;-62
2023/02/15 02:50:50;;;;;;;0.80;0.50;;;;;;;;;;105401;1248;61652;-61
2023/02/15 02:53:18;;;;;;;1.10;0.40;;;;;;;;;;105243;1258;61710;-61
2023/02/15 02:55:51;;;;;;;0.30;0.30;;;;;;;;;;105232;1249;61752;-62
2023/02/15 02:58:27;;;;;;;0.80;0.50;;;;;;;;;;105231;1267;61561;-61
2023/02/15 03:00:56;;;;;;;0.50;0.50;;;;;;;;;;105391;1258;61695;-62
2023/02/15 03:03:27;;;;;;;0.60;0.50;;;;;;;;;;105410;1264;62214;-62
2023/02/15 03:05:57;;;;;;;0.90;0.50;;;;;;;;;;105080;1257;61733;-61
2023/02/15 03:08:27;;;;;;;0.40;0.40;;;;;;;;;;105159;1248;61701;-63
2023/02/15 03:10:56;;;;;;;0.50;0.30;;;;;;;;;;105395;1263;61676;-62
2023/02/15 03:13:25;;;;;;;0.70;0.60;;;;;;;;;;105241;1253;61070;-62
2023/02/15 03:18:43;;;;;;;0.30;0.30;;;;;;;;;;105366;1247;61768;-62
2023/02/15 03:21:21;;;;;;;1.40;0.50;;;;;;;;;;105037;1255;61715;-61
2023/02/15 03:23:54;;;;;;;0.50;0.50;;;;;;;;;;105169;1254;61695;-61
2023/02/15 03:26:23;;;;;;;0.70;0.30;;;;;;;;;;105034;1254;61697;-62
2023/02/15 03:28:52;;;;;;;0.40;0.40;;;;;;;;;;105331;1249;61701;-61
2023/02/15 03:31:21;;;;;;;0.50;0.50;;;;;;;;;;105152;1253;61820;-63
2023/02/15 03:33:51;;;;;;;0.90;0.50;;;;;;;;;;105150;1253;61647;-61
2023/02/15 03:36:28;;;;;;;0.60;0.60;;;;;;;;;;105408;1251;61601;-61
2023/02/15 03:38:59;;;;;;;0.80;0.60;;;;;;;;;;105414;1261;61563;-61
2023/02/15 03:41:29;;;;;;;0.80;0.80;;;;;;;;;;105411;1268;61237;-61
2023/02/15 03:43:59;;;;;;;1.00;0.60;;;;;;;;;;105503;1248;61707;-64
2023/02/15 03:46:33;;;;;;;0.70;0.70;;;;;;;;;;105390;1250;61801;-62
2023/02/15 03:49:04;;;;;;;0.50;0.50;;;;;;;;;;105376;1248;61704;-62
2023/02/15 03:51:33;;;;;;;0.70;0.70;;;;;;;;;;105078;1253;61644;-62
2023/02/15 03:54:02;;;;;;;0.50;0.50;;;;;;;;;;105381;1249;61688;-62
2023/02/15 03:56:31;;;;;;;0.60;0.60;;;;;;;;;;105139;1267;61696;-60
2023/02/15 04:01:57;;;;;;;1.30;0.60;;;;;;;;;;105355;1248;61652;-63
2023/02/15 04:04:30;;;;;;;1.00;0.70;;;;;;;;;;105394;1264;61673;-61
2023/02/15 04:06:59;;;;;;;0.50;0.40;;;;;;;;;;105326;1251;61685;-60
2023/02/15 04:12:15;;;;;;;1.10;1.10;;;;;;;;;;105397;1253;61571;-61
2023/02/15 04:17:30;;;;;;;1.30;0.50;;;;;;;;;;105346;1249;61754;-61
2023/02/15 04:25:33;;;;;;;0.30;0.30;;;;;;;;;;105397;1251;61589;-59
2023/02/15 04:28:01;;;;;;;0.70;0.50;;;;;;;;;;105483;1250;61600;-61
2023/02/15 04:30:29;;;;;;;1.30;0.90;;;;;;;;;;105399;1264;62249;-60
2023/02/15 04:32:58;;;;;;;0.60;0.60;;;;;;;;;;105419;1260;62169;-61
2023/02/15 04:35:27;;;;;;;0.90;0.60;;;;;;;;;;105352;1248;61697;-61
2023/02/15 04:37:56;;;;;;;0.90;0.80;;;;;;;;;;105408;1248;61643;-62
2023/02/15 04:40:24;;;;;;;1.20;0.70;;;;;;;;;;105323;1247;61656;-61
2023/02/15 04:42:53;;;;;;;1.00;0.70;;;;;;;;;;105402;1250;61675;-61
2023/02/15 04:45:21;;;;;;;2.90;0.80;;;;;;;;;;105389;1250;61689;-62
2023/02/15 04:47:49;;;;;;;0.50;0.50;;;;;;;;;;105396;1253;61695;-62
2023/02/15 04:50:18;;;;;;;1.10;0.80;;;;;;;;;;105414;1251;61583;-62
2023/02/15 04:52:46;;;;;;;0.80;0.40;;;;;;;;;;105413;1264;61549;-62
2023/02/15 04:55:15;;;;;;;0.50;0.50;;;;;;;;;;105296;1249;61694;-62
2023/02/15 04:57:43;;;;;;;1.90;0.60;;;;;;;;;;105312;1260;61672;-62
2023/02/15 05:00:12;;;;;;;0.60;0.60;;;;;;;;;;105252;1254;61554;-61
2023/02/15 05:02:40;;;;;;;1.30;1.20;;;;;;;;;;105354;1251;61658;-62
2023/02/15 05:05:12;;;;;;;0.90;0.70;;;;;;;;;;105334;1251;61703;-62
2023/02/15 05:07:41;;;;;;;1.30;0.80;;;;;;;;;;105337;1269;61768;-61
2023/02/15 05:10:09;;;;;;;0.80;0.80;;;;;;;;;;105433;1255;63181;-62
2023/02/15 05:12:38;;;;;;;1.30;0.70;;;;;;;;;;105114;1247;61722;-62
2023/02/15 05:15:07;;;;;;;1.60;1.00;;;;;;;;;;105407;1261;61430;-62
2023/02/15 05:17:35;;;;;;;1.50;0.90;;;;;;;;;;105497;1250;61749;-62
2023/02/15 05:20:04;;;;;;;1.20;0.80;;;;;;;;;;105340;1251;62009;-62
2023/02/15 05:22:33;;;;;;;1.00;0.90;;;;;;;;;;105357;1248;61705;-61
2023/02/15 05:30:36;;;;;;;1.70;1.10;;;;;;;;;;105295;1247;61614;-67
2023/02/15 05:33:05;;;;;;;2.50;1.20;;;;;;;;;;105374;1251;61637;-66
2023/02/15 05:35:34;;;;;;;1.10;0.90;;;;;;;;;;105356;1251;61705;-68
2023/02/15 05:38:03;;;;;;;2.90;1.00;;;;;;;;;;105352;1250;61697;-67
2023/02/15 05:40:32;;;;;;;1.10;0.80;;;;;;;;;;104783;1252;61701;-66
2023/02/15 05:43:00;;;;;;;2.00;0.90;;;;;;;;;;105061;1255;61691;-66
2023/02/15 05:45:29;;;;;;;1.10;1.00;;;;;;;;;;105205;1260;61562;-68
2023/02/15 05:47:58;;;;;;;1.70;1.00;;;;;;;;;;105226;1251;61685;-70
2023/02/15 05:50:28;;;;;;;1.60;0.80;;;;;;;;;;105232;1251;61692;-68
2023/02/15 05:53:05;;;;;;;1.80;0.90;;;;;;;;;;105313;1251;61597;-66
2023/02/15 05:55:34;;;;;;;1.40;0.90;;;;;;;;;;105208;1254;61672;-69
2023/02/15 05:58:02;;;;;;;2.00;1.00;;;;;;;;;;105141;1264;61680;-69
2023/02/15 06:00:31;;;;;;;1.80;1.00;;;;;;;;;;105180;1248;61708;-69
2023/02/15 06:03:00;;;;;;;2.00;1.20;;;;;;;;;;105106;1249;61705;-66
2023/02/15 06:05:28;;;;;;;1.00;1.00;;;;;;;;;;105029;1254;61440;-71
2023/02/15 06:07:57;;;;;;;2.20;1.00;;;;;;;;;;105082;1255;61644;-71
2023/02/15 06:10:25;;;;;;;1.50;1.30;;;;;;;;;;105266;1253;61728;-71
2023/02/15 06:12:53;;;;;;;1.90;1.10;;;;;;;;;;105138;1251;61800;-72
2023/02/15 06:15:23;;;;;;;1.40;1.00;;;;;;;;;;104688;1256;61692;-69
2023/02/15 06:17:52;;;;;;;1.20;1.00;;;;;;;;;;105212;1249;61574;-71
2023/02/15 06:20:21;;;;;;;1.70;1.00;;;;;;;;;;105299;1249;61670;-69
2023/02/15 06:22:49;;;;;;;1.40;1.00;;;;;;;;;;104756;1266;61718;-69
2023/02/15 06:25:17;;;;;;;1.90;1.30;;;;;;;;;;105299;1259;61724;-67
2023/02/15 06:27:47;;;;;;;2.90;1.50;;;;;;;;;;104843;1265;61121;-69
2023/02/15 06:30:15;;;;;;;1.00;0.90;;;;;;;;;;104720;1257;61676;-68
2023/02/15 06:32:44;;;;;;;2.50;1.10;;;;;;;;;;105147;1251;61709;-70
2023/02/15 06:35:12;;;;;;;1.10;0.80;;;;;;;;;;105198;1257;61705;-71
2023/02/15 06:37:40;;;;;;;0.90;0.80;;;;;;;;;;105019;1250;61681;-69
2023/02/15 06:40:09;;;;;;;2.40;1.00;;;;;;;;;;105162;1259;61609;-70
2023/02/15 06:42:37;;;;;;;1.90;0.80;;;;;;;;;;105476;1248;61705;-71
2023/02/15 06:45:06;;;;;;;1.40;1.00;;;;;;;;;;105314;1260;61169;-71
2023/02/15 06:47:35;;;;;;;2.40;0.90;;;;;;;;;;105746;1247;61676;-65
2023/02/15 06:50:04;;;;;;;3.10;1.60;;;;;;;;;;105544;1251;61714;-64
2023/02/15 06:52:33;;;;;;;3.90;1.30;;;;;;;;;;105291;1253;61739;-63
2023/02/15 06:57:13;;;;;;;1.10;1.00;;;;;;;;;;101957;1285;599792;-63
2023/02/15 06:59:42;;;;;;;1.30;1.00;;;;;;;;;;104244;1260;60439;-66
2023/02/15 07:02:11;;;;;;;1.10;0.90;;;;;;;;;;104448;1260;60275;-64
2023/02/15 07:04:40;;;;;;;1.30;1.00;;;;;;;;;;104326;1274;60214;-64
2023/02/15 07:07:10;;;;;;;2.00;1.00;;;;;;;;;;104797;1261;60157;-64
2023/02/15 07:09:42;;;;;;;1.50;1.10;;;;;;;;;;104213;1276;262614;-64
2023/02/15 07:14:58;;;;;;;1.90;1.10;;;;;;;;;;104571;1262;60259;-63
2023/02/15 07:17:30;;;;;;;3.60;0.90;;;;;;;;;;104403;1260;60398;-62
2023/02/15 07:20:04;;;;;;;1.80;1.00;;;;;;;;;;104676;1258;60549;-64
2023/02/15 07:22:35;;;;;;;1.70;1.20;;;;;;;;;;104929;1259;61340;-62
2023/02/15 07:25:04;;;;;;;1.60;1.20;;;;;;;;;;104214;1277;60753;-64
2023/02/15 07:27:33;;;;;;;1.40;1.00;;;;;;;;;;104770;1254;60360;-63
2023/02/15 07:30:02;;;;;;;1.40;0.80;;;;;;;;;;104756;1267;60862;-64
2023/02/15 07:32:31;;;;;;;2.50;0.90;;;;;;;;;;104743;1253;60725;-66
2023/02/15 07:35:00;;;;;;;2.10;1.30;;;;;;;;;;104757;1251;60865;-66
2023/02/15 07:37:31;;;;;;;1.00;1.00;;;;;;;;;;105077;1255;60911;-62
2023/02/15 07:40:00;;;;;;;1.40;0.90;;;;;;;;;;104927;1256;60763;-62
2023/02/15 07:42:30;;;;;;;1.50;1.20;;;;;;;;;;105123;1251;60862;-63
2023/02/15 07:44:59;;;;;;;6.50;1.10;;;;;;;;;;104579;1267;60878;-64
2023/02/15 07:47:27;;;;;;;1.10;1.00;;;;;;;;;;105011;1252;60965;-62
2023/02/15 07:49:56;;;;;;;1.50;0.90;;;;;;;;;;105070;1253;61314;-64
2023/02/15 07:52:25;;;;;;;1.90;0.90;;;;;;;;;;105237;1267;60270;-63
2023/02/15 07:54:53;;;;;;;1.40;1.00;;;;;;;;;;104930;1254;60811;-65
2023/02/15 07:57:22;;;;;;;2.10;1.30;;;;;;;;;;104990;1249;60881;-65
2023/02/15 07:59:50;;;;;;;1.20;0.90;;;;;;;;;;104819;1262;60760;-64
2023/02/15 08:02:19;;;;;;;1.50;1.10;;;;;;;;;;104846;1254;60853;-64
2023/02/15 08:04:47;;;;;;;1.30;1.10;;;;;;;;;;105197;1253;60748;-63
2023/02/15 08:07:16;;;;;;;2.20;1.70;;;;;;;;;;105080;1251;61167;-62
2023/02/15 08:09:44;;;;;;;2.00;1.50;;;;;;;;;;104527;1257;61001;-63
2023/02/15 08:12:13;;;;;;;1.50;1.40;;;;;;;;;;104582;1256;60892;-63
2023/02/15 08:14:42;;;;;;;2.40;1.40;;;;;;;;;;105113;1254;60889;-73
2023/02/15 08:17:11;;;;;;;1.90;1.30;;;;;;;;;;105070;1256;60773;-73
2023/02/15 08:19:39;;;;;;;2.40;1.40;;;;;;;;;;105264;1252;60863;-72
2023/02/15 08:22:12;;;;;;;1.60;1.00;;;;;;;;;;105279;1252;60862;-68
2023/02/15 08:24:41;;;;;;;2.20;1.40;;;;;;;;;;105007;1253;61341;-71
2023/02/15 08:27:10;;;;;;;1.40;0.90;;;;;;;;;;104958;1250;60994;-70
2023/02/15 08:29:39;;;;;;;1.20;1.10;;;;;;;;;;105462;1267;60702;-71
2023/02/15 08:32:09;;;;;;;2.90;0.90;;;;;;;;;;104995;1258;60676;-69
2023/02/15 08:34:40;;;;;;;2.00;1.00;;;;;;;;;;105301;1253;60680;-69
2023/02/15 08:37:09;;;;;;;2.60;1.00;;;;;;;;;;104837;1250;60791;-68
2023/02/15 08:39:37;;;;;;;6.70;1.10;;;;;;;;;;104687;1272;60873;-70
2023/02/15 08:42:06;;;;;;;2.60;1.30;;;;;;;;;;105743;1250;60857;-70
2023/02/15 08:44:35;;;;;;;2.30;1.50;;;;;;;;;;105426;1251;61154;-73
2023/02/15 08:47:04;;;;;;;1.90;1.30;;;;;;;;;;105636;1253;60893;-75
2023/02/15 08:49:33;;;;;;;1.50;0.90;;;;;;;;;;105006;1250;61003;-72
2023/02/15 08:52:02;;;;;;;1.10;0.90;;;;;;;;;;105287;1257;60872;-71
2023/02/15 08:54:31;;;;;;;1.60;1.00;;;;;;;;;;105373;1251;60833;-63
2023/02/15 08:56:59;;;;;;;1.90;1.10;;;;;;;;;;105102;1256;60782;-63
2023/02/15 08:59:28;;;;;;;1.50;1.20;;;;;;;;;;105157;1256;60750;-63
2023/02/15 09:01:56;;;;;;;2.00;1.10;;;;;;;;;;105003;1254;60732;-62
2023/02/15 09:04:24;;;;;;;1.70;1.00;;;;;;;;;;104754;1256;60792;-72
2023/02/15 09:06:53;;;;;;;1.00;0.90;;;;;;;;;;104819;1250;60852;-72
2023/02/15 09:09:22;;;;;;;2.00;1.00;;;;;;;;;;104798;1250;60854;-72
2023/02/15 09:11:50;;;;;;;1.20;1.00;;;;;;;;;;104832;1255;60786;-72
2023/02/15 09:14:26;;;;;;;1.50;1.10;;;;;;;;;;104757;1251;60892;-71
2023/02/15 09:16:55;;;;;;;1.70;1.10;;;;;;;;;;104719;1266;60883;-72
2023/02/15 09:19:23;;;;;;;2.50;1.10;;;;;;;;;;104900;1257;60266;-73
2023/02/15 09:21:53;;;;;;;1.20;1.00;;;;;;;;;;104943;1256;60847;-72
2023/02/15 09:24:21;;;;;;;1.60;1.00;;;;;;;;;;104869;1250;60870;-72
2023/02/15 09:26:53;;;;;;;2.90;1.10;;;;;;;;;;104796;1254;60765;-70
2023/02/15 09:29:22;;;;;;;1.00;0.80;;;;;;;;;;105138;1254;60965;-71
2023/02/15 09:31:50;;;;;;;3.40;0.80;;;;;;;;;;105145;1253;60603;-73
2023/02/15 09:34:19;;;;;;;2.60;1.20;;;;;;;;;;105367;1251;60797;-70
2023/02/15 09:36:48;;;;;;;1.50;1.20;;;;;;;;;;105625;1249;60825;-73
2023/02/15 09:39:22;;;;;;;2.10;1.30;;;;;;;;;;105360;1253;61285;-71
2023/02/15 09:42:09;;;;;;;2.50;1.00;;;;;;;;;;105360;1251;60895;-72
2023/02/15 09:44:43;;;;;;;1.70;1.30;;;;;;;;;;105305;1253;61103;-69
2023/02/15 09:47:27;;;;;;;2.70;1.30;;;;;;;;;;105516;1249;60854;-69
2023/02/15 09:50:01;;;;;;;3.20;1.40;;;;;;;;;;105663;1265;60867;-69
2023/02/15 09:52:33;;;;;;;1.80;1.10;;;;;;;;;;105513;1248;60956;-68
2023/02/15 09:55:27;;;;;;;1.00;0.90;;;;;;;;;;105534;1247;60853;-69
2023/02/15 09:58:07;;;;;;;1.80;1.10;;;;;;;;;;105378;1254;61103;-70
2023/02/15 10:00:39;;;;;;;2.80;1.20;;;;;;;;;;105200;1269;60902;-71
2023/02/15 10:03:07;;;;;;;2.40;1.30;;;;;;;;;;105425;1252;60832;-70
2023/02/15 10:05:42;;;;;;;3.10;1.40;;;;;;;;;;105413;1251;60969;-70
2023/02/15 10:08:10;;;;;;;2.60;1.20;;;;;;;;;;105546;1250;60895;-71
2023/02/15 10:10:52;;;;;;;4.30;1.20;;;;;;;;;;105383;1252;61096;-72
2023/02/15 10:13:25;;;;;;;1.80;1.20;;;;;;;;;;105050;1253;60878;-69
2023/02/15 10:16:12;;;;;;;1.60;1.30;;;;;;;;;;105397;1251;60863;-69
2023/02/15 10:18:49;;;;;;;1.60;1.50;;;;;;;;;;105663;1247;60978;-67
2023/02/15 10:21:43;;;;;;;2.60;1.70;;;;;;;;;;105227;1266;60748;-70
2023/02/15 10:24:35;;;;;;;2.10;1.60;;;;;;;;;;105799;1249;60960;-67
2023/02/15 10:27:12;;;;;;;2.10;1.50;;;;;;;;;;105266;1250;61343;-67
2023/02/15 10:30:02;;;;;;;2.70;1.30;;;;;;;;;;105482;1248;60863;-68
2023/02/15 10:32:31;;;;;;;1.60;1.30;;;;;;;;;;105637;1250;60780;-68
2023/02/15 10:35:10;;;;;;;1.60;1.20;;;;;;;;;;105511;1247;60923;-70
2023/02/15 10:37:44;;;;;;;1.30;1.20;;;;;;;;;;105463;1252;60872;-68
2023/02/15 10:40:13;;;;;;;1.60;1.00;;;;;;;;;;105735;1252;60856;-68
2023/02/15 10:42:44;;;;;;;1.10;0.90;;;;;;;;;;105850;1251;60550;-68
2023/02/15 10:45:19;;;;;;;1.60;1.10;;;;;;;;;;105829;1248;60835;-68
2023/02/15 10:47:54;;;;;;;1.90;1.10;;;;;;;;;;105606;1251;60853;-67
2023/02/15 10:50:28;;;;;;;1.20;1.10;;;;;;;;;;105371;1250;60787;-71
2023/02/15 10:53:04;;;;;;;1.80;1.10;;;;;;;;;;105395;1251;60789;-68
2023/02/15 10:55:51;;;;;;;2.10;1.40;;;;;;;;;;105429;1248;61449;-68
2023/02/15 10:58:26;;;;;;;1.50;1.10;;;;;;;;;;105466;1263;61331;-67
2023/02/15 11:00:59;;;;;;;1.70;1.20;;;;;;;;;;105153;1252;60876;-67
2023/02/15 11:03:52;;;;;;;3.00;1.30;;;;;;;;;;105595;1248;60745;-68
2023/02/15 11:06:21;;;;;;;1.90;1.00;;;;;;;;;;105744;1252;60748;-69
2023/02/15 11:08:50;;;;;;;2.60;0.90;;;;;;;;;;105644;1252;60904;-69
2023/02/15 11:11:29;;;;;;;1.50;1.00;;;;;;;;;;105340;1252;61694;-64
2023/02/15 11:13:59;;;;;;;2.20;1.10;;;;;;;;;;105432;1259;61679;-70
2023/02/15 11:16:32;;;;;;;3.00;1.20;;;;;;;;;;105624;1252;61726;-69
2023/02/15 11:19:06;;;;;;;1.80;1.20;;;;;;;;;;105607;1252;61769;-67
2023/02/15 11:21:42;;;;;;;1.90;1.10;;;;;;;;;;105188;1249;61685;-68
2023/02/15 11:24:14;;;;;;;4.20;1.60;;;;;;;;;;105238;1249;61735;-69
2023/02/15 11:26:44;;;;;;;2.40;1.70;;;;;;;;;;105421;1252;62395;-69
2023/02/15 11:29:17;;;;;;;1.60;1.10;;;;;;;;;;105787;1252;61547;-68
2023/02/15 11:31:46;;;;;;;1.30;1.10;;;;;;;;;;105694;1250;61680;-69
2023/02/15 11:34:23;;;;;;;2.10;1.40;;;;;;;;;;105433;1251;61686;-69
2023/02/15 11:36:51;;;;;;;1.20;1.00;;;;;;;;;;105534;1251;61415;-68
2023/02/15 11:39:19;;;;;;;1.70;0.90;;;;;;;;;;105612;1250;61669;-68
2023/02/15 11:41:51;;;;;;;1.80;1.10;;;;;;;;;;105653;1252;61630;-68
2023/02/15 11:44:21;;;;;;;1.20;1.00;;;;;;;;;;105429;1250;61682;-68
2023/02/15 11:46:49;;;;;;;1.30;1.00;;;;;;;;;;105244;1253;61578;-68
2023/02/15 11:49:28;;;;;;;2.10;1.40;;;;;;;;;;105346;1252;62101;-71
2023/02/15 11:51:57;;;;;;;2.20;1.20;;;;;;;;;;105611;1251;61778;-68
2023/02/15 11:54:29;;;;;;;1.40;1.10;;;;;;;;;;105286;1249;61737;-68
2023/02/15 11:57:03;;;;;;;1.90;1.10;;;;;;;;;;105540;1257;61634;-70
2023/02/15 11:59:32;;;;;;;1.40;1.10;;;;;;;;;;105456;1265;63192;-69
2023/02/15 12:02:01;;;;;;;2.20;1.20;;;;;;;;;;105901;1249;61576;-69
2023/02/15 12:04:34;;;;;;;2.40;1.20;;;;;;;;;;105781;1250;61715;-69
2023/02/15 12:07:03;;;;;;;1.70;1.00;;;;;;;;;;105823;1251;61618;-70
2023/02/15 12:09:45;;;;;;;2.10;1.10;;;;;;;;;;105943;1247;61688;-69
2023/02/15 12:12:22;;;;;;;1.00;0.80;;;;;;;;;;106003;1247;61702;-68
2023/02/15 12:14:59;;;;;;;1.00;0.80;;;;;;;;;;105637;1253;61608;-69
2023/02/15 12:17:32;;;;;;;2.30;1.10;;;;;;;;;;105543;1262;61714;-69
2023/02/15 12:20:01;;;;;;;1.10;0.80;;;;;;;;;;105859;1252;61702;-70
2023/02/15 12:22:31;;;;;;;1.50;1.20;;;;;;;;;;106189;1247;61706;-69
2023/02/15 12:25:00;;;;;;;1.40;1.20;;;;;;;;;;105761;1251;61667;-69
2023/02/15 12:27:34;;;;;;;1.30;0.90;;;;;;;;;;105389;1251;61686;-68
2023/02/15 12:30:07;;;;;;;0.90;0.50;;;;;;;;;;105354;1247;61692;-70
2023/02/15 12:32:36;;;;;;;1.30;0.70;;;;;;;;;;105212;1255;61679;-69
2023/02/15 12:35:09;;;;;;;2.90;0.60;;;;;;;;;;105575;1250;61688;-67
2023/02/15 12:37:38;;;;;;;0.60;0.60;;;;;;;;;;105379;1252;61559;-71
2023/02/15 12:40:26;;;;;;;0.90;0.80;;;;;;;;;;105331;1248;61708;-71
2023/02/15 12:42:57;;;;;;;1.60;1.00;;;;;;;;;;105320;1253;61682;-71
2023/02/15 12:45:26;;;;;;;0.80;0.80;;;;;;;;;;105351;1252;61695;-70
2023/02/15 12:48:14;;;;;;;1.50;1.00;;;;;;;;;;105454;1248;61633;-69
2023/02/15 12:50:49;;;;;;;1.10;0.70;;;;;;;;;;105392;1253;61608;-71
2023/02/15 12:53:31;;;;;;;1.40;1.00;;;;;;;;;;105173;1248;61800;-67
2023/02/15 12:56:00;;;;;;;1.30;0.90;;;;;;;;;;105375;1254;61707;-63
2023/02/15 12:58:35;;;;;;;1.20;0.90;;;;;;;;;;105412;1252;61648;-64
2023/02/15 13:01:10;;;;;;;1.90;1.00;;;;;;;;;;105410;1251;61604;-67
2023/02/15 13:03:59;;;;;;;1.30;0.90;;;;;;;;;;105111;1262;61597;-68
2023/02/15 13:06:27;;;;;;;2.60;0.90;;;;;;;;;;105247;1252;61783;-68
2023/02/15 13:08:58;;;;;;;1.40;0.80;;;;;;;;;;105169;1255;61688;-67
2023/02/15 13:11:31;;;;;;;2.30;0.80;;;;;;;;;;105229;1263;61596;-68
2023/02/15 13:14:26;;;;;;;1.80;0.90;;;;;;;;;;104959;1253;61670;-68
2023/02/15 13:16:55;;;;;;;2.60;1.00;;;;;;;;;;105416;1251;61689;-63
2023/02/15 13:19:42;;;;;;;1.70;1.00;;;;;;;;;;105586;1252;61669;-63
2023/02/15 13:22:13;;;;;;;3.10;0.70;;;;;;;;;;105857;1251;63165;-63
2023/02/15 13:24:46;;;;;;;1.10;0.80;;;;;;;;;;105567;1249;61858;-63
2023/02/15 13:27:19;;;;;;;0.60;0.60;;;;;;;;;;105519;1262;61676;-64
2023/02/15 13:29:57;;;;;;;0.70;0.60;;;;;;;;;;105485;1251;61680;-63
2023/02/15 13:32:33;;;;;;;2.20;0.70;;;;;;;;;;105096;1265;61104;-64
2023/02/15 13:35:02;;;;;;;1.90;0.80;;;;;;;;;;105303;1252;61676;-63
2023/02/15 13:37:39;;;;;;;1.00;0.90;;;;;;;;;;105296;1252;61660;-63
2023/02/15 13:40:19;;;;;;;1.30;0.90;;;;;;;;;;105330;1253;61778;-62
2023/02/15 13:42:47;;;;;;;1.70;0.80;;;;;;;;;;105478;1251;61702;-63
2023/02/15 13:45:31;;;;;;;2.50;0.80;;;;;;;;;;105208;1251;62349;-64
2023/02/15 13:48:05;;;;;;;1.00;0.70;;;;;;;;;;105349;1248;61762;-62
2023/02/15 13:50:46;;;;;;;1.40;1.20;;;;;;;;;;105307;1251;61682;-63
2023/02/15 13:53:20;;;;;;;0.80;0.50;;;;;;;;;;105464;1251;61666;-63
2023/02/15 13:55:55;;;;;;;1.10;0.70;;;;;;;;;;105587;1247;61615;-63
2023/02/15 13:58:30;;;;;;;0.90;0.80;;;;;;;;;;105402;1252;61137;-62
2023/02/15 14:01:06;;;;;;;1.30;0.80;;;;;;;;;;105322;1263;61078;-62
2023/02/15 14:03:37;;;;;;;1.20;0.60;;;;;;;;;;105189;1253;61656;-61
2023/02/15 14:06:11;;;;;;;0.80;0.50;;;;;;;;;;105289;1250;61713;-61
2023/02/15 14:09:02;;;;;;;1.00;0.70;;;;;;;;;;105293;1263;61755;-64
2023/02/15 14:11:33;;;;;;;1.30;0.90;;;;;;;;;;105236;1253;61682;-67
2023/02/15 14:14:02;;;;;;;0.80;0.50;;;;;;;;;;105355;1268;61701;-62
2023/02/15 14:16:33;;;;;;;2.80;1.20;;;;;;;;;;105239;1252;61714;-63
2023/02/15 14:19:14;;;;;;;1.50;1.10;;;;;;;;;;105263;1252;61602;-64
2023/02/15 14:21:52;;;;;;;2.10;1.10;;;;;;;;;;105373;1252;61718;-63
2023/02/15 14:24:29;;;;;;;2.00;0.80;;;;;;;;;;105428;1251;61107;-62
2023/02/15 14:27:16;;;;;;;1.20;0.70;;;;;;;;;;105461;1254;61701;-62
2023/02/15 14:29:45;;;;;;;1.50;1.20;;;;;;;;;;105403;1249;61581;-64
2023/02/15 14:32:33;;;;;;;2.50;1.30;;;;;;;;;;105580;1252;61602;-62
2023/02/15 14:35:03;;;;;;;1.70;1.20;;;;;;;;;;105706;1251;62261;-66
2023/02/15 14:37:50;;;;;;;1.30;1.10;;;;;;;;;;105226;1269;61682;-61
2023/02/15 14:43:45;;;;;;;1.30;0.70;;;;;;;;;;105541;1252;61553;-64
2023/02/15 14:46:26;;;;;;;1.30;0.70;;;;;;;;;;105563;1249;61586;-64
2023/02/15 14:49:18;;;;;;;1.40;0.70;;;;;;;;;;105538;1248;61726;-66
2023/02/15 14:51:49;;;;;;;2.50;1.00;;;;;;;;;;105319;1252;61698;-65
2023/02/15 14:54:20;;;;;;;1.30;0.80;;;;;;;;;;105294;1258;61710;-63
2023/02/15 14:57:01;;;;;;;1.30;1.10;;;;;;;;;;105323;1248;61647;-64
2023/02/15 14:59:46;;;;;;;1.80;1.40;;;;;;;;;;105134;1253;61697;-63
2023/02/15 15:02:15;;;;;;;1.30;1.10;;;;;;;;;;105235;1253;61641;-64
2023/02/15 15:04:43;;;;;;;1.80;1.20;;;;;;;;;;105633;1247;61660;-63
2023/02/15 15:07:22;;;;;;;3.00;1.20;;;;;;;;;;105517;1251;61765;-65
2023/02/15 15:10:03;;;;;;;1.50;1.20;;;;;;;;;;105715;1249;61691;-63
2023/02/15 15:12:31;;;;;;;2.10;1.10;;;;;;;;;;105630;1249;62071;-62
2023/02/15 15:15:01;;;;;;;1.80;1.20;;;;;;;;;;106021;1249;61674;-66
2023/02/15 15:17:32;;;;;;;1.10;1.00;;;;;;;;;;105817;1250;61708;-64
2023/02/15 15:20:02;;;;;;;1.20;0.90;;;;;;;;;;105662;1259;61714;-69
2023/02/15 15:22:31;;;;;;;2.20;1.10;;;;;;;;;;105599;1253;61686;-63
2023/02/15 15:25:23;;;;;;;1.10;1.00;;;;;;;;;;105404;1249;61657;-63
2023/02/15 15:27:53;;;;;;;1.40;0.90;;;;;;;;;;105285;1256;61776;-64
2023/02/15 15:30:22;;;;;;;2.10;1.40;;;;;;;;;;105525;1256;61686;-64